createdAt,value
2022-07-28T00:00:08.262Z,14.38
2022-07-28T00:02:35.627Z,15.00
2022-07-28T00:05:03.216Z,15.98
2022-07-28T00:07:30.045Z,14.32
2022-07-28T00:10:00.282Z,13.43
2022-07-28T00:12:27.998Z,19.63
2022-07-28T00:14:54.951Z,20.33
2022-07-28T00:17:21.820Z,13.55
2022-07-28T00:19:48.657Z,17.25
2022-07-28T00:22:15.508Z,14.80
2022-07-28T00:24:42.369Z,14.13
2022-07-28T00:27:09.313Z,12.73
2022-07-28T00:29:49.346Z,11.23
2022-07-28T00:32:18.860Z,18.52
2022-07-28T00:34:45.906Z,12.68
2022-07-28T00:37:14.437Z,12.65
2022-07-28T00:39:42.731Z,13.30
2022-07-28T00:42:09.705Z,11.05
2022-07-28T00:44:39.000Z,14.10
2022-07-28T00:47:05.952Z,10.25
2022-07-28T00:49:32.940Z,13.95
2022-07-28T00:52:00.959Z,15.18
2022-07-28T00:54:27.915Z,10.25
2022-07-28T00:56:54.745Z,15.02
2022-07-28T00:59:21.595Z,12.32
2022-07-28T01:01:48.995Z,7.53
2022-07-28T01:04:16.921Z,8.77
2022-07-28T01:07:04.529Z,11.00
2022-07-28T01:10:02.341Z,12.05
2022-07-28T01:12:29.101Z,11.38
2022-07-28T01:15:19.878Z,13.60
2022-07-28T01:18:15.669Z,11.48
2022-07-28T01:20:47.359Z,12.90
2022-07-28T01:23:32.518Z,11.40
2022-07-28T01:26:40.752Z,9.23
2022-07-28T01:30:04.514Z,12.88
2022-07-28T01:33:02.668Z,9.13
2022-07-28T01:35:41.723Z,12.13
2022-07-28T01:38:11.458Z,13.45
2022-07-28T01:40:42.773Z,12.57
2022-07-28T01:43:14.867Z,14.57
2022-07-28T01:45:43.654Z,11.65
2022-07-28T01:48:12.434Z,9.90
2022-07-28T01:50:40.050Z,11.00
2022-07-28T01:53:11.044Z,17.02
2022-07-28T01:55:39.936Z,8.15
2022-07-28T01:58:08.136Z,11.95
2022-07-28T02:00:37.968Z,10.23
2022-07-28T02:03:07.046Z,12.88
2022-07-28T02:05:36.587Z,12.88
2022-07-28T02:08:05.391Z,15.90
2022-07-28T02:10:35.016Z,11.02
2022-07-28T02:13:02.979Z,12.13
2022-07-28T02:15:32.194Z,8.68
2022-07-28T02:18:00.120Z,7.60
2022-07-28T02:20:27.288Z,14.73
2022-07-28T02:22:55.190Z,12.43
2022-07-28T02:25:22.387Z,15.57
2022-07-28T02:28:07.934Z,12.45
2022-07-28T02:30:41.921Z,16.15
2022-07-28T02:33:57.770Z,10.13
2022-07-28T02:36:27.207Z,13.73
2022-07-28T02:39:02.054Z,12.52
2022-07-28T02:41:32.337Z,10.13
2022-07-28T02:44:04.358Z,12.70
2022-07-28T02:46:43.100Z,13.38
2022-07-28T02:49:16.950Z,9.43
2022-07-28T02:51:45.860Z,11.30
2022-07-28T02:54:14.972Z,11.15
2022-07-28T02:56:42.287Z,12.82
2022-07-28T02:59:22.046Z,9.77
2022-07-28T03:01:50.651Z,13.10
2022-07-28T03:04:38.789Z,11.68
2022-07-28T03:07:06.686Z,15.40
2022-07-28T03:09:45.868Z,14.93
2022-07-28T03:12:13.335Z,13.82
2022-07-28T03:14:40.840Z,8.45
2022-07-28T03:17:08.980Z,10.25
2022-07-28T03:19:35.938Z,16.85
2022-07-28T03:22:03.061Z,14.35
2022-07-28T03:24:35.093Z,9.85
2022-07-28T03:27:11.996Z,13.23
2022-07-28T03:29:40.555Z,21.80
2022-07-28T03:32:08.568Z,12.63
2022-07-28T03:34:35.742Z,13.85
2022-07-28T03:37:16.931Z,9.48
2022-07-28T03:39:51.201Z,13.40
2022-07-28T03:42:19.789Z,18.33
2022-07-28T03:44:48.216Z,11.25
2022-07-28T03:47:15.853Z,12.02
2022-07-28T03:49:46.342Z,13.48
2022-07-28T03:52:13.344Z,11.13
2022-07-28T03:54:40.337Z,12.02
2022-07-28T03:57:07.256Z,8.40
2022-07-28T03:59:34.166Z,10.52
2022-07-28T04:02:01.060Z,9.80
2022-07-28T04:04:29.199Z,8.50
2022-07-28T04:06:56.025Z,11.48
2022-07-28T04:09:23.200Z,12.65
2022-07-28T04:11:50.056Z,8.38
2022-07-28T04:14:18.255Z,12.93
2022-07-28T04:16:45.620Z,12.55
2022-07-28T04:19:12.542Z,9.82
2022-07-28T04:21:39.432Z,13.70
2022-07-28T04:24:08.789Z,11.75
2022-07-28T04:26:35.621Z,11.43
2022-07-28T04:29:03.380Z,9.82
2022-07-28T04:31:30.785Z,11.27
2022-07-28T04:33:57.736Z,10.40
2022-07-28T04:36:25.960Z,12.70
2022-07-28T04:38:53.110Z,11.82
2022-07-28T04:41:19.979Z,9.02
2022-07-28T04:43:46.800Z,9.05
2022-07-28T04:46:15.250Z,8.85
2022-07-28T04:48:42.519Z,9.18
2022-07-28T04:51:10.059Z,8.70
2022-07-28T04:53:36.920Z,13.00
2022-07-28T04:56:04.237Z,14.00
2022-07-28T04:58:31.611Z,10.85
2022-07-28T05:00:59.980Z,13.95
2022-07-28T05:03:27.028Z,15.73
2022-07-28T05:05:55.105Z,9.32
2022-07-28T05:08:25.665Z,11.07
2022-07-28T05:10:54.920Z,12.20
2022-07-28T05:13:21.796Z,18.25
2022-07-28T05:15:48.703Z,6.25
2022-07-28T05:18:15.562Z,12.45
2022-07-28T05:20:42.760Z,9.32
2022-07-28T05:23:11.642Z,11.25
2022-07-28T05:25:39.243Z,10.45
2022-07-28T05:28:06.068Z,12.23
2022-07-28T05:30:32.985Z,11.60
2022-07-28T05:33:01.865Z,11.18
2022-07-28T05:35:29.087Z,11.25
2022-07-28T05:37:55.928Z,12.95
2022-07-28T05:40:22.750Z,10.90
2022-07-28T05:42:49.720Z,18.27
2022-07-28T05:45:17.773Z,12.23
2022-07-28T05:47:47.268Z,11.35
2022-07-28T05:50:20.587Z,10.27
2022-07-28T05:52:48.379Z,9.00
2022-07-28T05:55:16.393Z,14.77
2022-07-28T05:57:43.684Z,15.50
2022-07-28T06:00:22.084Z,13.00
2022-07-28T06:02:50.777Z,15.02
2022-07-28T06:05:23.264Z,19.65
2022-07-28T06:07:51.553Z,10.35
2022-07-28T06:10:21.311Z,14.18
2022-07-28T06:12:53.561Z,13.32
2022-07-28T06:15:23.568Z,12.47
2022-07-28T06:17:52.595Z,15.63
2022-07-28T06:20:24.125Z,13.98
2022-07-28T06:22:54.894Z,11.18
2022-07-28T06:25:28.022Z,15.98
2022-07-28T06:30:24.001Z,14.80
2022-07-28T06:32:51.620Z,11.85
2022-07-28T06:35:18.965Z,13.50
2022-07-28T06:37:48.036Z,12.23
2022-07-28T06:40:17.017Z,10.10
2022-07-28T06:42:44.756Z,14.82
2022-07-28T06:45:19.691Z,14.93
2022-07-28T06:47:51.601Z,11.90
2022-07-28T06:50:25.901Z,12.82
2022-07-28T06:52:55.825Z,13.75
2022-07-28T06:55:22.739Z,15.10
2022-07-28T06:57:49.605Z,9.30
2022-07-28T07:00:17.017Z,10.82
2022-07-28T07:02:44.170Z,8.38
2022-07-28T07:05:12.064Z,12.85
2022-07-28T07:07:43.073Z,11.93
2022-07-28T07:10:11.425Z,9.45
2022-07-28T07:12:38.564Z,9.52
2022-07-28T07:15:06.801Z,11.00
2022-07-28T07:17:33.773Z,9.85
2022-07-28T07:20:00.629Z,9.00
2022-07-28T07:22:27.576Z,10.07
2022-07-28T07:24:57.067Z,8.27
2022-07-28T07:27:24.806Z,8.20
2022-07-28T07:29:51.811Z,13.27
2022-07-28T07:32:18.723Z,7.53
2022-07-28T07:34:47.960Z,8.13
2022-07-28T07:37:15.123Z,13.05
2022-07-28T07:39:42.456Z,10.57
2022-07-28T07:42:09.558Z,9.00
2022-07-28T07:44:36.542Z,10.50
2022-07-28T07:47:04.048Z,7.93
2022-07-28T07:49:42.331Z,9.70
2022-07-28T07:52:14.456Z,15.70
2022-07-28T07:54:42.201Z,12.65
2022-07-28T07:57:10.301Z,11.32
2022-07-28T07:59:37.460Z,10.40
2022-07-28T08:02:04.709Z,10.70
2022-07-28T08:04:31.855Z,10.88
2022-07-28T08:09:33.452Z,12.43
2022-07-28T08:12:00.368Z,11.23
2022-07-28T08:14:27.559Z,8.93
2022-07-28T08:16:56.531Z,11.50
2022-07-28T08:19:23.603Z,7.60
2022-07-28T08:21:50.910Z,12.57
2022-07-28T08:24:32.451Z,12.32
2022-07-28T08:27:01.908Z,14.85
2022-07-28T08:29:29.006Z,7.95
2022-07-28T08:31:56.026Z,10.88
2022-07-28T08:34:31.061Z,7.25
2022-07-28T08:37:03.288Z,7.32
2022-07-28T08:39:32.422Z,8.07
2022-07-28T08:42:11.618Z,8.52
2022-07-28T08:44:47.563Z,6.50
2022-07-28T08:47:16.404Z,5.70
2022-07-28T08:49:44.567Z,7.28
2022-07-28T08:52:14.001Z,6.00
2022-07-28T08:54:46.844Z,15.63
2022-07-28T08:57:28.439Z,8.75
2022-07-28T08:59:56.037Z,9.60
2022-07-28T09:02:26.283Z,5.63
2022-07-28T09:04:55.214Z,7.53
2022-07-28T09:07:23.771Z,6.13
2022-07-28T09:09:51.168Z,6.05
2022-07-28T09:12:27.512Z,7.22
2022-07-28T09:14:55.734Z,8.82
2022-07-28T09:17:22.560Z,7.68
2022-07-28T09:19:49.453Z,9.05
2022-07-28T09:22:16.742Z,5.57
2022-07-28T09:24:44.876Z,5.72
2022-07-28T09:27:14.651Z,6.90
2022-07-28T09:29:48.028Z,9.02
2022-07-28T09:32:17.712Z,10.90
2022-07-28T09:34:51.799Z,7.30
2022-07-28T09:37:24.814Z,4.57
2022-07-28T09:39:59.833Z,9.55
2022-07-28T09:45:25.647Z,4.10
2022-07-28T09:48:13.359Z,3.83
2022-07-28T09:50:44.012Z,4.38
2022-07-28T09:53:28.249Z,5.93
2022-07-28T09:55:59.261Z,5.88
2022-07-28T09:58:27.854Z,7.47
2022-07-28T10:01:13.082Z,4.68
2022-07-28T10:03:42.949Z,5.68
2022-07-28T10:06:16.490Z,3.15
2022-07-28T10:08:51.922Z,6.80
2022-07-28T10:11:24.679Z,7.90
2022-07-28T10:16:44.266Z,3.58
2022-07-28T10:19:11.131Z,9.13
2022-07-28T10:21:46.523Z,8.10
2022-07-28T10:24:22.245Z,4.97
2022-07-28T10:26:50.720Z,5.22
2022-07-28T10:29:22.081Z,12.38
2022-07-28T10:32:05.176Z,6.00
2022-07-28T10:37:11.008Z,5.57
2022-07-28T10:39:42.948Z,4.97
2022-07-28T10:42:12.813Z,5.93
2022-07-28T10:44:41.604Z,6.65
2022-07-28T10:47:18.098Z,4.30
2022-07-28T10:49:48.930Z,5.60
2022-07-28T10:55:23.543Z,4.80
2022-07-28T10:58:17.117Z,5.28
2022-07-28T11:00:57.382Z,7.45
2022-07-28T11:03:44.354Z,3.92
2022-07-28T11:06:40.058Z,5.47
2022-07-28T11:09:17.144Z,10.48
2022-07-28T11:11:55.922Z,9.88
2022-07-28T11:14:38.999Z,4.25
2022-07-28T11:17:10.127Z,5.20
2022-07-28T11:20:16.766Z,5.03
2022-07-28T11:22:33.920Z,4.38
2022-07-28T11:25:20.550Z,6.22
2022-07-28T11:27:52.346Z,4.35
2022-07-28T11:30:19.569Z,2.45
2022-07-28T11:32:56.169Z,7.40
2022-07-28T11:35:39.701Z,5.38
2022-07-28T11:38:16.997Z,3.42
2022-07-28T11:40:52.621Z,3.00
2022-07-28T11:43:37.494Z,4.03
2022-07-28T11:46:10.434Z,8.52
2022-07-28T11:48:41.833Z,7.05
2022-07-28T11:51:12.747Z,3.30
2022-07-28T11:53:49.029Z,4.10
2022-07-28T11:56:36.021Z,5.53
2022-07-28T11:59:05.992Z,7.18
2022-07-28T12:01:38.437Z,2.80
2022-07-28T12:06:42.970Z,4.22
2022-07-28T12:09:11.985Z,3.95
2022-07-28T12:11:42.854Z,2.25
2022-07-28T12:14:17.577Z,4.28
2022-07-28T12:16:48.795Z,2.25
2022-07-28T12:19:19.101Z,3.20
2022-07-28T12:21:56.737Z,3.50
2022-07-28T12:24:30.662Z,5.57
2022-07-28T12:27:03.898Z,10.40
2022-07-28T12:29:35.855Z,3.92
2022-07-28T12:32:09.774Z,2.45
2022-07-28T12:34:40.697Z,3.63
2022-07-28T12:37:12.414Z,3.45
2022-07-28T12:39:42.256Z,6.10
2022-07-28T12:42:12.372Z,5.18
2022-07-28T12:44:42.322Z,2.30
2022-07-28T12:47:12.449Z,3.38
2022-07-28T12:49:45.388Z,5.45
2022-07-28T12:52:30.237Z,7.57
2022-07-28T12:54:58.615Z,7.03
2022-07-28T12:57:51.639Z,2.67
2022-07-28T13:02:52.097Z,3.67
2022-07-28T13:05:33.063Z,6.90
2022-07-28T13:08:05.966Z,4.57
2022-07-28T13:10:33.505Z,4.07
2022-07-28T13:13:07.555Z,7.30
2022-07-28T13:15:36.829Z,3.25
2022-07-28T13:18:05.012Z,6.68
2022-07-28T13:20:48.787Z,4.55
2022-07-28T13:23:15.780Z,2.92
2022-07-28T13:25:42.717Z,5.65
2022-07-28T13:28:23.862Z,3.97
2022-07-28T13:30:50.758Z,7.78
2022-07-28T13:33:18.298Z,6.10
2022-07-28T13:35:47.213Z,6.38
2022-07-28T13:38:14.388Z,6.13
2022-07-28T13:40:42.030Z,3.15
2022-07-28T13:43:11.363Z,4.78
2022-07-28T13:45:39.905Z,2.83
2022-07-28T13:48:07.938Z,3.92
2022-07-28T13:50:35.004Z,3.40
2022-07-28T13:53:01.987Z,5.43
2022-07-28T13:55:30.470Z,3.63
2022-07-28T13:57:57.318Z,5.82
2022-07-28T14:00:24.523Z,3.33
2022-07-28T14:02:51.680Z,4.85
2022-07-28T14:05:18.849Z,2.53
2022-07-28T14:07:48.244Z,2.58
2022-07-28T14:10:18.134Z,3.53
2022-07-28T14:12:46.476Z,6.00
2022-07-28T14:15:14.916Z,4.75
2022-07-28T14:17:43.919Z,3.08
2022-07-28T14:20:16.238Z,4.63
2022-07-28T14:22:46.651Z,2.80
2022-07-28T14:25:21.250Z,4.40
2022-07-28T14:27:49.769Z,4.53
2022-07-28T14:30:17.116Z,2.92
2022-07-28T14:32:44.371Z,6.13
2022-07-28T14:35:11.800Z,4.97
2022-07-28T14:38:15.803Z,3.05
2022-07-28T14:40:26.015Z,7.63
2022-07-28T14:42:52.902Z,4.93
2022-07-28T14:45:19.880Z,4.55
2022-07-28T14:47:46.750Z,5.30
2022-07-28T14:50:14.239Z,5.97
2022-07-28T14:52:44.809Z,7.63
2022-07-28T14:55:12.864Z,4.57
2022-07-28T14:57:50.014Z,4.53
2022-07-28T15:00:23.947Z,3.42
2022-07-28T15:02:52.909Z,6.82
2022-07-28T15:05:21.439Z,3.58
2022-07-28T15:07:49.440Z,4.95
2022-07-28T15:10:16.620Z,4.72
2022-07-28T15:12:43.645Z,3.53
2022-07-28T15:15:11.308Z,4.35
2022-07-28T15:17:38.309Z,3.63
2022-07-28T15:20:07.196Z,3.38
2022-07-28T15:22:35.253Z,3.22
2022-07-28T15:25:02.655Z,3.03
2022-07-28T15:27:33.153Z,4.13
2022-07-28T15:30:02.957Z,4.22
2022-07-28T15:32:31.394Z,5.28
2022-07-28T15:34:59.166Z,7.47
2022-07-28T15:37:27.910Z,3.75
2022-07-28T15:39:54.780Z,5.63
2022-07-28T15:42:21.671Z,4.30
2022-07-28T15:44:49.250Z,3.55
2022-07-28T15:47:16.930Z,4.80
2022-07-28T15:49:43.767Z,2.58
2022-07-28T15:52:10.681Z,5.50
2022-07-28T15:54:37.645Z,6.38
2022-07-28T15:57:04.612Z,4.47
2022-07-28T15:59:49.973Z,3.75
2022-07-28T16:02:18.795Z,3.65
2022-07-28T16:04:51.475Z,3.95
2022-07-28T16:07:24.170Z,7.20
2022-07-28T16:09:54.105Z,3.55
2022-07-28T16:12:25.300Z,9.52
2022-07-28T16:14:53.942Z,4.93
2022-07-28T16:17:22.757Z,4.75
2022-07-28T16:19:51.094Z,4.55
2022-07-28T16:22:19.472Z,2.33
2022-07-28T16:24:47.077Z,3.25
2022-07-28T16:27:14.706Z,10.38
2022-07-28T16:29:41.894Z,3.47
2022-07-28T16:32:08.791Z,4.55
2022-07-28T16:34:35.999Z,4.57
2022-07-28T16:37:05.066Z,2.88
2022-07-28T16:39:34.106Z,3.78
2022-07-28T16:42:01.457Z,4.72
2022-07-28T16:44:29.223Z,4.07
2022-07-28T16:46:57.182Z,4.10
2022-07-28T16:49:24.933Z,3.15
2022-07-28T16:51:51.856Z,6.05
2022-07-28T16:54:19.391Z,6.85
2022-07-28T16:56:48.345Z,3.00
2022-07-28T16:59:15.574Z,4.07
2022-07-28T17:01:46.302Z,4.88
2022-07-28T17:04:15.652Z,5.82
2022-07-28T17:06:42.893Z,4.32
2022-07-28T17:09:10.856Z,7.97
2022-07-28T17:11:37.898Z,6.18
2022-07-28T17:14:04.911Z,6.32
2022-07-28T17:16:32.142Z,5.50
2022-07-28T17:18:59.563Z,5.55
2022-07-28T17:21:26.998Z,6.32
2022-07-28T17:23:53.871Z,4.63
2022-07-28T17:29:08.959Z,3.15
2022-07-28T17:31:37.468Z,5.03
2022-07-28T17:34:04.354Z,3.45
2022-07-28T17:36:35.170Z,4.88
2022-07-28T17:39:02.258Z,5.25
2022-07-28T17:41:30.353Z,6.07
2022-07-28T17:43:57.167Z,4.03
2022-07-28T17:46:26.629Z,5.03
2022-07-28T17:48:53.960Z,8.57
2022-07-28T17:51:21.183Z,4.00
2022-07-28T17:53:49.135Z,5.30
2022-07-28T17:56:17.478Z,5.70
2022-07-28T17:58:45.675Z,5.35
2022-07-28T18:01:15.250Z,6.00
2022-07-28T18:03:57.812Z,2.50
2022-07-28T18:06:33.411Z,4.43
2022-07-28T18:09:05.368Z,2.63
2022-07-28T18:11:33.745Z,5.55
2022-07-28T18:14:04.006Z,4.38
2022-07-28T18:16:45.109Z,4.57
2022-07-28T18:19:11.994Z,7.80
2022-07-28T18:21:39.369Z,3.20
2022-07-28T18:24:10.140Z,2.95
2022-07-28T18:26:36.982Z,5.63
2022-07-28T18:29:03.880Z,3.22
2022-07-28T18:31:30.928Z,6.78
2022-07-28T18:33:57.836Z,5.63
2022-07-28T18:36:24.814Z,4.50
2022-07-28T18:38:51.701Z,5.97
2022-07-28T18:41:18.548Z,5.18
2022-07-28T18:43:45.388Z,5.78
2022-07-28T18:46:13.056Z,2.92
2022-07-28T18:48:40.015Z,4.07
2022-07-28T18:51:06.941Z,7.25
2022-07-28T18:53:33.898Z,6.80
2022-07-28T18:56:01.563Z,4.18
2022-07-28T18:58:29.698Z,5.22
2022-07-28T19:00:56.652Z,5.32
2022-07-28T19:03:23.553Z,5.10
2022-07-28T19:05:50.808Z,3.67
2022-07-28T19:08:18.811Z,3.03
2022-07-28T19:10:45.704Z,4.55
2022-07-28T19:13:13.142Z,7.68
2022-07-28T19:15:41.279Z,2.05
2022-07-28T19:18:08.925Z,4.47
2022-07-28T19:20:44.698Z,5.60
2022-07-28T19:23:11.887Z,7.00
2022-07-28T19:25:39.823Z,4.63
2022-07-28T19:28:08.336Z,3.13
2022-07-28T19:30:35.388Z,5.95
2022-07-28T19:33:04.077Z,5.53
2022-07-28T19:35:31.084Z,9.60
2022-07-28T19:37:59.990Z,4.32
2022-07-28T19:40:31.886Z,2.78
2022-07-28T19:42:59.872Z,5.50
2022-07-28T19:45:27.210Z,4.53
2022-07-28T19:47:54.675Z,4.53
2022-07-28T19:50:22.005Z,6.20
2022-07-28T19:52:49.068Z,6.80
2022-07-28T19:55:18.066Z,7.93
2022-07-28T19:57:45.858Z,6.00
2022-07-28T20:00:13.834Z,7.00
2022-07-28T20:02:40.966Z,3.15
2022-07-28T20:05:09.345Z,5.43
2022-07-28T20:07:36.470Z,7.57
2022-07-28T20:10:04.587Z,2.78
2022-07-28T20:12:36.091Z,3.92
2022-07-28T20:15:05.814Z,3.90
2022-07-28T20:17:40.334Z,6.60
2022-07-28T20:20:12.918Z,6.65
2022-07-28T20:22:41.486Z,3.75
2022-07-28T20:25:10.512Z,6.07
2022-07-28T20:27:42.250Z,7.50
2022-07-28T20:30:12.304Z,8.48
2022-07-28T20:32:40.478Z,3.20
2022-07-28T20:35:09.274Z,4.72
2022-07-28T20:37:37.642Z,12.27
2022-07-28T20:40:07.431Z,3.55
2022-07-28T20:42:35.919Z,7.10
2022-07-28T20:45:04.190Z,6.57
2022-07-28T20:47:34.445Z,3.58
2022-07-28T20:50:02.006Z,6.53
2022-07-28T20:52:29.026Z,3.55
2022-07-28T20:54:56.447Z,6.88
2022-07-28T20:57:23.591Z,4.38
2022-07-28T20:59:52.114Z,4.55
2022-07-28T21:02:21.562Z,4.00
2022-07-28T21:04:50.427Z,2.85
2022-07-28T21:07:59.899Z,8.25
2022-07-28T21:10:07.614Z,6.63
2022-07-28T21:12:37.005Z,5.53
2022-07-28T21:15:06.505Z,7.55
2022-07-28T21:17:33.679Z,3.88
2022-07-28T21:20:00.832Z,5.20
2022-07-28T21:22:27.851Z,3.38
2022-07-28T21:24:55.653Z,3.03
2022-07-28T21:27:23.677Z,4.22
2022-07-28T21:32:18.268Z,7.32
2022-07-28T21:34:45.162Z,6.30
2022-07-28T21:37:13.098Z,9.40
2022-07-28T21:39:40.358Z,2.53
2022-07-28T21:42:08.759Z,4.78
2022-07-28T21:44:39.445Z,3.65
2022-07-28T21:47:06.454Z,6.93
2022-07-28T21:49:33.386Z,8.13
2022-07-28T21:52:00.365Z,6.03
2022-07-28T21:54:27.871Z,5.97
2022-07-28T21:56:54.853Z,5.55
2022-07-28T21:59:21.737Z,6.72
2022-07-28T22:01:48.790Z,5.38
2022-07-28T22:04:16.360Z,4.75
2022-07-28T22:06:46.312Z,8.23
2022-07-28T22:09:14.594Z,4.57
2022-07-28T22:11:41.880Z,8.68
2022-07-28T22:14:09.074Z,5.90
2022-07-28T22:16:36.086Z,4.72
2022-07-28T22:19:03.797Z,4.75
2022-07-28T22:21:30.854Z,6.43
2022-07-28T22:23:57.749Z,5.30
2022-07-28T22:26:24.681Z,3.72
2022-07-28T22:28:51.532Z,5.35
2022-07-28T22:31:18.511Z,5.32
2022-07-28T22:33:45.438Z,4.35
2022-07-28T22:36:12.552Z,5.78
2022-07-28T22:38:39.417Z,8.75
2022-07-28T22:41:06.336Z,3.55
2022-07-28T22:43:34.060Z,2.83
2022-07-28T22:46:01.191Z,3.50
2022-07-28T22:48:28.315Z,9.35
2022-07-28T22:50:55.332Z,4.03
2022-07-28T22:53:22.311Z,5.35
2022-07-28T22:55:49.294Z,5.63
2022-07-28T22:58:16.164Z,5.25
2022-07-28T23:00:43.558Z,3.67
2022-07-28T23:03:13.393Z,7.80
2022-07-28T23:05:42.833Z,7.60
2022-07-28T23:08:10.556Z,4.07
2022-07-28T23:10:37.668Z,5.80
2022-07-28T23:13:04.734Z,2.85
2022-07-28T23:15:41.232Z,7.70
2022-07-28T23:18:16.056Z,8.70
2022-07-28T23:20:44.981Z,5.68
2022-07-28T23:23:12.628Z,2.65
2022-07-28T23:25:42.635Z,7.15
2022-07-28T23:28:10.347Z,5.57
2022-07-28T23:30:37.997Z,7.53
2022-07-28T23:33:05.779Z,5.63
2022-07-28T23:35:33.487Z,4.90
2022-07-28T23:38:00.345Z,5.50
2022-07-28T23:40:27.488Z,8.52
2022-07-28T23:42:54.372Z,7.43
2022-07-28T23:45:21.263Z,3.80
2022-07-28T23:47:48.122Z,8.02
2022-07-28T23:50:15.133Z,3.08
2022-07-28T23:52:42.101Z,7.85
2022-07-28T23:55:09.317Z,5.57
2022-07-28T23:57:36.422Z,7.68
